createdAt,value
2023-02-06T00:01:45.960Z,7.88
2023-02-06T00:04:13.050Z,8.45
2023-02-06T00:06:40.706Z,8.77
2023-02-06T00:09:08.117Z,9.25
2023-02-06T00:11:35.299Z,9.05
2023-02-06T00:14:02.263Z,9.30
2023-02-06T00:16:31.698Z,8.98
2023-02-06T00:18:59.462Z,9.23
2023-02-06T00:21:27.816Z,8.95
2023-02-06T00:23:56.809Z,8.73
2023-02-06T00:26:24.307Z,9.10
2023-02-06T00:28:51.174Z,9.35
2023-02-06T00:31:18.071Z,8.27
2023-02-06T00:33:44.818Z,9.40
2023-02-06T00:36:11.635Z,8.90
2023-02-06T00:38:38.640Z,9.18
2023-02-06T00:41:06.238Z,8.63
2023-02-06T00:43:33.332Z,9.18
2023-02-06T00:46:00.140Z,8.63
2023-02-06T00:48:27.294Z,8.68
2023-02-06T00:50:54.786Z,8.80
2023-02-06T00:53:21.846Z,9.45
2023-02-06T00:55:48.548Z,8.80
2023-02-06T00:58:15.488Z,10.25
2023-02-06T01:00:43.523Z,9.35
2023-02-06T01:03:10.825Z,9.82
2023-02-06T01:05:37.829Z,9.25
2023-02-06T01:08:04.939Z,9.82
2023-02-06T01:10:32.220Z,9.82
2023-02-06T01:12:59.782Z,8.80
2023-02-06T01:15:26.745Z,9.65
2023-02-06T01:17:53.732Z,9.35
2023-02-06T01:20:21.652Z,9.38
2023-02-06T01:22:48.584Z,8.75
2023-02-06T01:25:15.453Z,9.43
2023-02-06T01:27:42.466Z,10.20
2023-02-06T01:30:11.168Z,9.90
2023-02-06T01:32:39.635Z,9.20
2023-02-06T01:35:08.366Z,9.80
2023-02-06T01:37:35.578Z,9.10
2023-02-06T01:40:02.905Z,8.57
2023-02-06T01:42:29.760Z,9.77
2023-02-06T01:45:21.220Z,9.80
2023-02-06T01:47:50.287Z,9.25
2023-02-06T01:50:18.794Z,8.65
2023-02-06T01:52:45.778Z,8.98
2023-02-06T01:55:13.562Z,9.05
2023-02-06T01:57:40.445Z,8.63
2023-02-06T02:00:09.685Z,8.40
2023-02-06T02:02:45.142Z,8.70
2023-02-06T02:05:12.950Z,8.73
2023-02-06T02:08:02.723Z,8.27
2023-02-06T02:10:30.983Z,8.57
2023-02-06T02:12:57.866Z,8.98
2023-02-06T02:15:46.567Z,9.20
2023-02-06T02:18:30.181Z,9.02
2023-02-06T02:21:26.496Z,8.90
2023-02-06T02:24:19.334Z,8.90
2023-02-06T02:27:13.961Z,8.48
2023-02-06T02:30:10.693Z,8.68
2023-02-06T02:32:55.833Z,8.88
2023-02-06T02:36:04.457Z,8.13
2023-02-06T02:38:34.143Z,7.40
2023-02-06T02:41:19.267Z,6.70
2023-02-06T02:43:58.067Z,7.70
2023-02-06T02:46:28.517Z,7.88
2023-02-06T02:49:03.277Z,7.38
2023-02-06T02:51:30.276Z,7.47
2023-02-06T02:53:57.988Z,7.05
2023-02-06T02:56:27.232Z,7.32
2023-02-06T02:59:03.702Z,7.25
2023-02-06T03:01:35.894Z,7.55
2023-02-06T03:04:35.244Z,7.43
2023-02-06T03:07:15.061Z,8.10
2023-02-06T03:10:12.511Z,8.02
2023-02-06T03:12:55.767Z,7.68
2023-02-06T03:15:37.342Z,6.63
2023-02-06T03:18:12.630Z,7.82
2023-02-06T03:20:44.579Z,7.15
2023-02-06T03:23:19.336Z,7.97
2023-02-06T03:25:49.450Z,7.38
2023-02-06T03:28:21.058Z,7.80
2023-02-06T03:30:51.266Z,8.00
2023-02-06T03:33:23.174Z,7.47
2023-02-06T03:35:49.995Z,7.97
2023-02-06T03:38:17.046Z,7.60
2023-02-06T03:40:48.278Z,7.55
2023-02-06T03:43:18.852Z,7.47
2023-02-06T03:45:49.983Z,7.82
2023-02-06T03:48:27.240Z,7.88
2023-02-06T03:50:57.620Z,7.68
2023-02-06T03:53:26.618Z,8.30
2023-02-06T03:55:58.870Z,7.95
2023-02-06T03:58:26.003Z,7.40
2023-02-06T04:00:53.315Z,8.43
2023-02-06T04:03:21.577Z,8.25
2023-02-06T04:05:48.677Z,7.60
2023-02-06T04:08:15.584Z,7.80
2023-02-06T04:10:42.372Z,7.50
2023-02-06T04:13:09.229Z,7.47
2023-02-06T04:15:36.665Z,8.02
2023-02-06T04:18:05.174Z,8.88
2023-02-06T04:20:32.952Z,8.32
2023-02-06T04:23:00.177Z,9.50
2023-02-06T04:25:26.916Z,10.73
2023-02-06T04:27:53.999Z,11.38
2023-02-06T04:30:20.970Z,12.90
2023-02-06T04:32:47.835Z,10.50
2023-02-06T04:35:14.580Z,11.10
2023-02-06T04:37:41.369Z,10.25
2023-02-06T04:40:08.498Z,9.40
2023-02-06T04:42:35.375Z,9.52
2023-02-06T04:45:02.087Z,8.38
2023-02-06T04:47:28.975Z,9.05
2023-02-06T04:49:55.750Z,8.75
2023-02-06T04:52:22.756Z,8.07
2023-02-06T04:54:49.513Z,8.38
2023-02-06T04:57:16.328Z,8.25
2023-02-06T04:59:43.083Z,7.85
2023-02-06T05:02:09.923Z,8.05
2023-02-06T05:04:38.936Z,7.53
2023-02-06T05:07:06.355Z,8.80
2023-02-06T05:09:33.283Z,7.95
2023-02-06T05:12:00.056Z,8.18
2023-02-06T05:14:27.002Z,8.80
2023-02-06T05:16:53.865Z,8.30
2023-02-06T05:19:20.581Z,8.00
2023-02-06T05:21:47.324Z,7.55
2023-02-06T05:24:14.198Z,7.30
2023-02-06T05:26:40.929Z,7.70
2023-02-06T05:29:08.255Z,6.93
2023-02-06T05:31:35.592Z,7.85
2023-02-06T05:34:02.395Z,8.32
2023-02-06T05:36:29.354Z,7.88
2023-02-06T05:38:56.189Z,9.60
2023-02-06T05:41:22.960Z,8.77
2023-02-06T05:43:49.734Z,7.63
2023-02-06T05:46:16.763Z,8.20
2023-02-06T05:48:43.595Z,8.27
2023-02-06T05:51:10.380Z,9.02
2023-02-06T05:53:37.102Z,8.68
2023-02-06T05:56:04.090Z,9.13
2023-02-06T05:58:31.264Z,8.82
2023-02-06T06:00:58.346Z,9.02
2023-02-06T06:03:25.244Z,9.25
2023-02-06T06:05:53.488Z,9.25
2023-02-06T06:08:20.937Z,9.82
2023-02-06T06:10:51.384Z,10.10
2023-02-06T06:13:19.137Z,11.50
2023-02-06T06:15:45.885Z,9.73
2023-02-06T06:18:13.015Z,10.85
2023-02-06T06:20:39.762Z,10.18
2023-02-06T06:23:06.631Z,9.90
2023-02-06T06:25:35.230Z,10.05
2023-02-06T06:28:02.428Z,9.90
2023-02-06T06:30:29.303Z,12.43
2023-02-06T06:32:56.180Z,11.73
2023-02-06T06:35:23.001Z,13.23
2023-02-06T06:37:49.742Z,14.95
2023-02-06T06:40:16.732Z,16.42
2023-02-06T06:42:43.631Z,13.18
2023-02-06T06:45:10.662Z,11.82
2023-02-06T06:47:37.466Z,11.60
2023-02-06T06:50:05.495Z,10.73
2023-02-06T06:52:32.665Z,10.75
2023-02-06T06:54:59.408Z,10.90
2023-02-06T06:57:26.167Z,10.15
2023-02-06T06:59:53.044Z,11.43
2023-02-06T07:02:19.918Z,11.43
2023-02-06T07:04:46.876Z,11.80
2023-02-06T07:07:13.993Z,11.98
2023-02-06T07:09:40.748Z,11.68
2023-02-06T07:12:07.709Z,11.05
2023-02-06T07:14:34.427Z,11.43
2023-02-06T07:17:01.780Z,10.40
2023-02-06T07:19:28.635Z,12.40
2023-02-06T07:21:55.667Z,11.95
2023-02-06T07:24:22.433Z,13.63
2023-02-06T07:26:49.342Z,13.02
2023-02-06T07:29:16.119Z,17.20
2023-02-06T07:31:42.876Z,20.80
2023-02-06T07:34:09.827Z,20.10
2023-02-06T07:36:38.078Z,18.70
2023-02-06T07:39:05.267Z,21.00
2023-02-06T07:41:32.022Z,17.65
2023-02-06T07:43:58.804Z,16.02
2023-02-06T07:46:25.814Z,11.30
2023-02-06T07:48:52.599Z,12.38
2023-02-06T07:51:19.456Z,10.40
2023-02-06T07:53:46.209Z,8.75
2023-02-06T07:56:16.445Z,8.55
2023-02-06T07:58:43.807Z,7.80
2023-02-06T08:01:11.144Z,8.20
2023-02-06T08:03:38.008Z,7.57
2023-02-06T08:06:14.834Z,8.57
2023-02-06T08:08:42.798Z,8.73
2023-02-06T08:11:15.164Z,8.38
2023-02-06T08:13:43.883Z,9.02
2023-02-06T08:16:14.329Z,8.95
2023-02-06T08:18:41.278Z,8.95
2023-02-06T08:21:11.436Z,8.60
2023-02-06T08:23:38.666Z,8.93
2023-02-06T08:26:11.189Z,8.85
2023-02-06T08:28:40.706Z,9.25
2023-02-06T08:31:15.053Z,8.57
2023-02-06T08:33:42.214Z,8.63
2023-02-06T08:36:09.787Z,8.23
2023-02-06T08:38:37.058Z,9.27
2023-02-06T08:41:04.741Z,9.30
2023-02-06T08:43:33.083Z,9.57
2023-02-06T08:46:00.132Z,9.05
2023-02-06T08:48:27.144Z,9.02
2023-02-06T08:51:08.038Z,8.05
2023-02-06T08:53:35.469Z,9.00
2023-02-06T08:56:06.194Z,7.90
2023-02-06T08:58:33.491Z,8.85
2023-02-06T09:01:06.828Z,8.13
2023-02-06T09:03:34.969Z,8.40
2023-02-06T09:06:09.814Z,8.57
2023-02-06T09:08:38.196Z,7.60
2023-02-06T09:11:25.978Z,8.10
2023-02-06T09:13:56.019Z,8.48
2023-02-06T09:16:24.033Z,8.43
2023-02-06T09:18:54.226Z,7.53
2023-02-06T09:21:23.712Z,8.27
2023-02-06T09:23:53.614Z,8.00
2023-02-06T09:26:23.394Z,8.10
2023-02-06T09:28:54.474Z,8.00
2023-02-06T09:31:21.324Z,7.30
2023-02-06T09:33:48.089Z,8.15
2023-02-06T09:36:17.508Z,8.32
2023-02-06T09:38:48.213Z,8.27
2023-02-06T09:41:27.274Z,7.90
2023-02-06T09:44:18.755Z,7.30
2023-02-06T09:47:13.300Z,9.13
2023-02-06T09:49:59.805Z,7.80
2023-02-06T09:52:29.270Z,7.75
2023-02-06T09:55:33.950Z,7.28
2023-02-06T09:58:07.232Z,7.22
2023-02-06T10:01:00.989Z,7.70
2023-02-06T10:03:49.125Z,7.50
2023-02-06T10:06:43.584Z,8.20
2023-02-06T10:09:10.405Z,7.43
2023-02-06T10:11:49.389Z,7.32
2023-02-06T10:14:28.226Z,12.73
2023-02-06T10:16:58.084Z,7.82
2023-02-06T10:19:34.252Z,8.55
2023-02-06T10:22:11.322Z,7.55
2023-02-06T10:24:52.600Z,7.88
2023-02-06T10:27:19.849Z,8.73
2023-02-06T10:29:48.413Z,9.02
2023-02-06T10:32:18.199Z,8.45
2023-02-06T10:35:08.619Z,8.10
2023-02-06T10:37:50.391Z,8.02
2023-02-06T10:40:23.166Z,9.10
2023-02-06T10:42:50.109Z,9.00
2023-02-06T10:45:41.797Z,7.80
2023-02-06T10:48:29.100Z,8.43
2023-02-06T10:51:10.011Z,8.38
2023-02-06T10:53:44.076Z,7.82
2023-02-06T10:56:17.357Z,8.43
2023-02-06T10:58:52.230Z,8.18
2023-02-06T11:01:26.437Z,8.27
2023-02-06T11:03:56.555Z,8.52
2023-02-06T11:06:26.332Z,7.97
2023-02-06T11:08:53.142Z,8.27
2023-02-06T11:11:24.905Z,8.82
2023-02-06T11:14:15.500Z,8.10
2023-02-06T11:16:43.004Z,7.95
2023-02-06T11:19:26.268Z,8.45
2023-02-06T11:22:07.367Z,8.38
2023-02-06T11:24:36.023Z,8.50
2023-02-06T11:27:13.337Z,8.15
2023-02-06T11:29:45.929Z,8.05
2023-02-06T11:32:58.979Z,8.27
2023-02-06T11:35:37.256Z,7.95
2023-02-06T11:38:24.994Z,7.65
2023-02-06T11:41:06.676Z,8.30
2023-02-06T11:43:48.611Z,7.93
2023-02-06T11:46:27.512Z,8.65
2023-02-06T11:49:00.617Z,7.97
2023-02-06T11:51:46.569Z,8.05
2023-02-06T11:54:28.984Z,7.60
2023-02-06T11:57:19.266Z,8.40
2023-02-06T12:00:32.331Z,7.90
2023-02-06T12:02:59.289Z,8.07
2023-02-06T12:05:30.908Z,8.13
2023-02-06T12:08:02.462Z,8.23
2023-02-06T12:10:33.551Z,8.52
2023-02-06T12:13:16.500Z,8.05
2023-02-06T12:15:48.293Z,7.80
2023-02-06T12:18:28.841Z,8.65
2023-02-06T12:21:16.628Z,8.85
2023-02-06T12:23:50.056Z,8.32
2023-02-06T12:26:20.019Z,8.48
2023-02-06T12:29:08.201Z,8.32
2023-02-06T12:31:38.359Z,8.75
2023-02-06T12:34:11.422Z,8.70
2023-02-06T12:36:53.326Z,7.85
2023-02-06T12:39:22.984Z,7.70
2023-02-06T12:42:32.064Z,8.27
2023-02-06T12:45:28.348Z,8.43
2023-02-06T12:48:01.741Z,8.52
2023-02-06T12:50:46.665Z,7.82
2023-02-06T12:53:31.510Z,8.15
2023-02-06T12:56:08.698Z,8.13
2023-02-06T12:58:44.193Z,7.88
2023-02-06T13:01:30.020Z,8.00
2023-02-06T13:04:06.033Z,7.80
2023-02-06T13:06:48.991Z,7.47
2023-02-06T13:09:25.013Z,7.68
2023-02-06T13:11:52.352Z,8.55
2023-02-06T13:14:27.672Z,8.18
2023-02-06T13:17:08.541Z,7.68
2023-02-06T13:19:41.448Z,7.80
2023-02-06T13:22:08.217Z,8.10
2023-02-06T13:24:35.954Z,7.90
2023-02-06T13:27:08.773Z,7.88
2023-02-06T13:29:35.564Z,7.60
2023-02-06T13:32:21.743Z,9.00
2023-02-06T13:34:58.240Z,7.82
2023-02-06T13:37:32.550Z,8.20
2023-02-06T13:40:20.996Z,7.70
2023-02-06T13:43:03.066Z,8.13
2023-02-06T13:45:34.975Z,8.15
2023-02-06T13:48:04.745Z,8.15
2023-02-06T13:50:36.562Z,7.72
2023-02-06T13:53:07.050Z,7.50
2023-02-06T13:55:36.843Z,6.82
2023-02-06T13:58:32.499Z,7.28
2023-02-06T14:01:00.231Z,7.85
2023-02-06T14:03:33.791Z,8.18
2023-02-06T14:06:23.614Z,8.13
2023-02-06T14:09:10.620Z,8.38
2023-02-06T14:12:24.349Z,7.57
2023-02-06T14:15:00.165Z,7.57
2023-02-06T14:18:07.165Z,7.32
2023-02-06T14:20:53.331Z,8.52
2023-02-06T14:23:55.840Z,7.47
2023-02-06T14:26:38.042Z,8.23
2023-02-06T14:29:17.671Z,7.80
2023-02-06T14:32:09.284Z,8.60
2023-02-06T14:34:50.922Z,9.07
2023-02-06T14:37:26.449Z,8.40
2023-02-06T14:40:04.387Z,8.43
2023-02-06T14:42:40.855Z,8.38
2023-02-06T14:45:40.902Z,8.82
2023-02-06T14:48:47.915Z,8.13
2023-02-06T14:51:37.303Z,8.35
2023-02-06T14:54:06.739Z,8.05
2023-02-06T14:56:38.977Z,8.60
2023-02-06T14:59:18.028Z,9.15
2023-02-06T15:01:48.465Z,8.30
2023-02-06T15:04:22.118Z,8.70
2023-02-06T15:06:55.014Z,8.75
2023-02-06T15:09:37.864Z,9.57
2023-02-06T15:12:19.311Z,8.32
2023-02-06T15:15:02.824Z,7.38
2023-02-06T15:17:30.922Z,8.85
2023-02-06T15:20:26.062Z,9.00
2023-02-06T15:23:04.967Z,8.10
2023-02-06T15:25:44.656Z,8.25
2023-02-06T15:28:20.391Z,8.18
2023-02-06T15:30:52.407Z,8.80
2023-02-06T15:33:23.986Z,9.13
2023-02-06T15:35:53.638Z,8.63
2023-02-06T15:38:22.934Z,8.02
2023-02-06T15:40:55.049Z,9.05
2023-02-06T15:43:27.296Z,9.52
2023-02-06T15:45:57.118Z,9.23
2023-02-06T15:48:35.973Z,9.75
2023-02-06T15:51:36.084Z,9.13
2023-02-06T15:56:50.372Z,8.07
2023-02-06T15:59:20.950Z,9.10
2023-02-06T16:01:48.882Z,9.38
2023-02-06T16:04:26.951Z,8.50
2023-02-06T16:07:15.062Z,8.55
2023-02-06T16:10:08.271Z,9.95
2023-02-06T16:12:37.886Z,9.20
2023-02-06T16:15:31.884Z,10.30
2023-02-06T16:18:02.034Z,11.13
2023-02-06T16:23:22.571Z,9.38
2023-02-06T16:26:02.168Z,10.73
2023-02-06T16:28:29.904Z,10.55
2023-02-06T16:31:02.386Z,10.25
2023-02-06T16:33:39.408Z,11.32
2023-02-06T16:36:07.153Z,11.23
2023-02-06T16:38:34.073Z,10.15
2023-02-06T16:41:00.840Z,11.15
2023-02-06T16:43:29.889Z,10.80
2023-02-06T16:45:56.733Z,11.10
2023-02-06T16:48:23.652Z,10.05
2023-02-06T16:50:50.807Z,11.15
2023-02-06T16:53:24.454Z,11.15
2023-02-06T16:55:51.685Z,10.70
2023-02-06T16:58:23.270Z,11.07
2023-02-06T17:00:50.842Z,12.02
2023-02-06T17:03:18.161Z,10.65
2023-02-06T17:05:47.321Z,11.90
2023-02-06T17:08:21.782Z,11.00
2023-02-06T17:10:48.905Z,11.27
2023-02-06T17:13:21.156Z,12.02
2023-02-06T17:15:49.270Z,11.50
2023-02-06T17:18:18.700Z,11.52
2023-02-06T17:20:48.769Z,11.15
2023-02-06T17:23:16.010Z,12.23
2023-02-06T17:25:45.426Z,12.32
2023-02-06T17:28:15.695Z,11.82
2023-02-06T17:30:43.118Z,11.93
2023-02-06T17:33:10.286Z,10.73
2023-02-06T17:35:37.850Z,12.13
2023-02-06T17:38:06.027Z,11.95
2023-02-06T17:40:34.546Z,11.40
2023-02-06T17:43:03.919Z,11.48
2023-02-06T17:45:31.170Z,11.77
2023-02-06T17:47:58.020Z,11.35
2023-02-06T17:50:27.346Z,11.07
2023-02-06T17:52:56.129Z,11.10
2023-02-06T17:55:24.216Z,11.52
2023-02-06T17:57:51.005Z,12.40
2023-02-06T18:00:19.931Z,10.63
2023-02-06T18:02:46.716Z,11.00
2023-02-06T18:05:13.572Z,11.15
2023-02-06T18:07:40.649Z,11.13
2023-02-06T18:10:09.495Z,11.48
2023-02-06T18:12:36.368Z,11.80
2023-02-06T18:15:04.794Z,10.85
2023-02-06T18:17:31.587Z,11.48
2023-02-06T18:19:58.421Z,11.88
2023-02-06T18:22:25.718Z,11.52
2023-02-06T18:24:52.533Z,11.38
2023-02-06T18:27:21.265Z,11.40
2023-02-06T18:29:50.515Z,12.68
2023-02-06T18:32:18.727Z,13.43
2023-02-06T18:34:45.985Z,11.30
2023-02-06T18:37:12.898Z,12.35
2023-02-06T18:39:39.689Z,11.85
2023-02-06T18:42:24.946Z,12.95
2023-02-06T18:44:51.724Z,10.70
2023-02-06T18:47:19.751Z,11.70
2023-02-06T18:49:46.629Z,12.10
2023-02-06T18:52:14.185Z,11.05
2023-02-06T18:54:41.038Z,11.60
2023-02-06T18:57:07.931Z,11.75
2023-02-06T18:59:35.553Z,10.68
2023-02-06T19:02:02.819Z,11.77
2023-02-06T19:04:32.252Z,12.23
2023-02-06T19:06:59.089Z,11.70
2023-02-06T19:09:26.064Z,11.38
2023-02-06T19:11:52.853Z,11.25
2023-02-06T19:14:22.615Z,10.88
2023-02-06T19:16:51.475Z,10.45
2023-02-06T19:19:18.937Z,11.70
2023-02-06T19:21:45.987Z,11.95
2023-02-06T19:24:18.746Z,11.15
2023-02-06T19:26:46.228Z,11.63
2023-02-06T19:29:15.460Z,11.60
2023-02-06T19:31:42.808Z,11.90
2023-02-06T19:34:10.221Z,12.35
2023-02-06T19:36:37.287Z,11.57
2023-02-06T19:39:06.807Z,11.90
2023-02-06T19:41:34.271Z,11.85
2023-02-06T19:44:10.679Z,11.75
2023-02-06T19:46:38.421Z,12.27
2023-02-06T19:49:08.664Z,11.75
2023-02-06T19:51:39.217Z,11.73
2023-02-06T19:54:06.365Z,11.63
2023-02-06T19:56:40.014Z,11.93
2023-02-06T19:59:27.884Z,11.57
2023-02-06T20:02:00.160Z,11.70
2023-02-06T20:04:30.610Z,11.98
2023-02-06T20:06:57.581Z,11.68
2023-02-06T20:09:25.833Z,11.63
2023-02-06T20:11:52.870Z,11.50
2023-02-06T20:14:20.336Z,11.20
2023-02-06T20:16:49.020Z,11.55
2023-02-06T20:19:22.150Z,11.55
2023-02-06T20:21:51.969Z,11.45
2023-02-06T20:24:28.962Z,12.23
2023-02-06T20:26:59.392Z,12.07
2023-02-06T20:29:35.045Z,11.63
2023-02-06T20:32:03.791Z,11.88
2023-02-06T20:34:31.129Z,11.40
2023-02-06T20:36:58.207Z,11.77
2023-02-06T20:39:26.267Z,11.82
2023-02-06T20:41:53.754Z,11.98
2023-02-06T20:44:20.924Z,11.35
2023-02-06T20:46:47.835Z,10.77
2023-02-06T20:49:18.347Z,11.05
2023-02-06T20:51:45.194Z,11.52
2023-02-06T20:54:12.057Z,10.80
2023-02-06T20:56:39.366Z,11.88
2023-02-06T20:59:06.618Z,11.35
2023-02-06T21:01:33.662Z,11.60
2023-02-06T21:04:03.428Z,11.75
2023-02-06T21:06:31.378Z,10.85
2023-02-06T21:09:00.085Z,11.45
2023-02-06T21:11:29.584Z,11.15
2023-02-06T21:13:58.475Z,10.57
2023-02-06T21:16:27.221Z,11.13
2023-02-06T21:18:55.386Z,10.93
2023-02-06T21:21:22.210Z,10.60
2023-02-06T21:23:49.562Z,10.07
2023-02-06T21:26:18.255Z,10.68
2023-02-06T21:28:46.316Z,10.57
2023-02-06T21:31:18.366Z,9.93
2023-02-06T21:33:46.112Z,10.30
2023-02-06T21:36:13.191Z,10.95
2023-02-06T21:38:40.647Z,10.00
2023-02-06T21:41:15.769Z,10.57
2023-02-06T21:43:42.721Z,10.10
2023-02-06T21:46:10.483Z,10.38
2023-02-06T21:48:37.887Z,9.63
2023-02-06T21:51:08.699Z,10.55
2023-02-06T21:53:35.653Z,10.82
2023-02-06T21:56:06.371Z,11.55
2023-02-06T21:58:33.253Z,11.68
2023-02-06T22:01:00.554Z,13.10
2023-02-06T22:03:27.745Z,12.32
2023-02-06T22:05:54.818Z,12.85
2023-02-06T22:08:21.777Z,12.27
2023-02-06T22:10:48.697Z,11.95
2023-02-06T22:13:15.482Z,13.23
2023-02-06T22:15:51.389Z,14.27
2023-02-06T22:18:18.590Z,13.45
2023-02-06T22:20:45.262Z,16.52
2023-02-06T22:23:12.066Z,19.88
2023-02-06T22:25:39.085Z,19.67
2023-02-06T22:28:06.032Z,20.40
2023-02-06T22:30:32.903Z,18.60
2023-02-06T22:33:00.107Z,17.35
2023-02-06T22:35:26.808Z,15.60
2023-02-06T22:37:53.582Z,14.27
2023-02-06T22:40:20.515Z,13.90
2023-02-06T22:42:47.507Z,13.98
2023-02-06T22:45:14.332Z,13.35
2023-02-06T22:47:41.100Z,13.68
2023-02-06T22:50:08.158Z,13.50
2023-02-06T22:52:53.562Z,14.50
2023-02-06T22:55:20.415Z,15.38
2023-02-06T22:57:47.207Z,22.20
2023-02-06T23:00:16.643Z,19.08
2023-02-06T23:02:43.346Z,15.98
2023-02-06T23:05:10.705Z,15.73
2023-02-06T23:07:37.539Z,15.43
2023-02-06T23:10:05.072Z,15.07
2023-02-06T23:12:31.780Z,15.52
2023-02-06T23:14:58.443Z,18.67
2023-02-06T23:17:25.159Z,25.27
2023-02-06T23:19:51.900Z,21.25
2023-02-06T23:22:18.676Z,16.80
2023-02-06T23:24:45.416Z,18.30
2023-02-06T23:27:12.153Z,16.58
2023-02-06T23:29:38.941Z,18.70
2023-02-06T23:32:05.799Z,13.50
2023-02-06T23:34:32.498Z,17.98
2023-02-06T23:36:59.277Z,19.67
2023-02-06T23:39:26.031Z,18.15
2023-02-06T23:41:53.015Z,14.75
2023-02-06T23:44:19.839Z,15.18
2023-02-06T23:46:47.769Z,15.57
2023-02-06T23:49:14.539Z,16.88
2023-02-06T23:51:41.264Z,16.88
2023-02-06T23:54:09.357Z,17.50
2023-02-06T23:56:36.959Z,16.15
2023-02-06T23:59:05.009Z,14.73
